ADDS METAR Data INFO
IDs: Format: Raw Decoded Include TAF

Data at: 0957 UTC 12 Dec 2017

K9A5 120935Z AUTO 00000KT 10SM CLR M01/M02 A2988 RMK AO2 T10081021
K9A5 120915Z AUTO 00000KT 7SM CLR 00/M02 A2988 RMK AO2 T10051017
K9A5 120855Z AUTO 00000KT 7SM CLR M01/M02 A2989 RMK AO2 T10071020
K9A5 120835Z AUTO 00000KT 7SM CLR M01/M02 A2988 RMK AO2 T10081021
K9A5 120815Z AUTO 00000KT 7SM CLR M01/M02 A2988 RMK AO2 T10101023
K9A5 120755Z AUTO 00000KT 7SM CLR M01/M02 A2989 RMK AO2 T10111025
K9A5 120735Z AUTO 00000KT 10SM CLR M01/M03 A2989 RMK AO2 T10101026
K9A5 120715Z AUTO 00000KT 10SM CLR M01/M02 A2989 RMK AO2 T10071024
K9A5 120655Z AUTO 00000KT 10SM CLR 00/M02 A2989 RMK AO2 T10041020
K9A5 120635Z AUTO 00000KT 10SM CLR 00/M02 A2990 RMK AO2 T10041022
K9A5 120615Z AUTO 00000KT 10SM CLR 00/M02 A2991 RMK AO2 T10031022
K9A5 120555Z AUTO 00000KT 10SM CLR 00/M02 A2991 RMK AO2 T10041024 10056 21004 401311045
K9A5 120540Z AUTO 00000KT 10SM CLR 00/M02 A2992 RMK AO2 T00001021
K9A5 120515Z AUTO 00000KT 10SM CLR 00/M02 A2992 RMK AO2 T00001022
K9A5 120455Z AUTO 00000KT 10SM CLR 00/M02 A2993 RMK AO2 T00001024
K9A5 120435Z AUTO 00000KT 10SM CLR 00/M02 A2994 RMK AO2 T00021021
K9A5 120415Z AUTO 00000KT 10SM CLR 01/M02 A2995 RMK AO2 T00051021
K9A5 120355Z AUTO 00000KT 10SM CLR 01/M02 A2995 RMK AO2 T00071022
K9A5 120335Z AUTO 00000KT 10SM CLR 02/M02 A2996 RMK AO2 T00151020
K9A5 120315Z AUTO 00000KT 10SM CLR 02/M02 A2996 RMK AO2 T00171025
K9A5 120255Z AUTO 00000KT 10SM CLR 04/M01 A2996 RMK AO2 T00351014
K9A5 120235Z AUTO 15003KT 10SM CLR 03/M01 A2995 RMK AO2 T00301014
K9A5 120215Z AUTO 00000KT 10SM CLR 04/M01 A2997 RMK AO2 T00401015
K9A5 120155Z AUTO 15003KT 10SM CLR 04/M01 A2997 RMK AO2 T00381011
K9A5 120135Z AUTO 16003KT 10SM CLR 03/M02 A2997 RMK AO2 T00311016
K9A5 120115Z AUTO 14003KT 10SM CLR 03/M02 A2999 RMK AO2 T00321017
K9A5 120055Z AUTO 00000KT 10SM CLR 04/M02 A2999 RMK AO2 T00391017
K9A5 120035Z AUTO 00000KT 10SM CLR 06/M02 A2998 RMK AO2 T00551020
K9A5 120015Z AUTO 00000KT 10SM CLR 05/M02 A2997 RMK AO2 T00471017
K9A5 112355Z AUTO 18003KT 10SM CLR 06/M02 A2999 RMK AO2 T00561022 10131 20056
K9A5 112335Z AUTO 20003KT 10SM CLR 07/M02 A2999 RMK AO2 T00711024
K9A5 112315Z AUTO 20003KT 10SM CLR 07/M02 A2999 RMK AO2 T00741022
K9A5 112255Z AUTO 00000KT 10SM CLR 09/M02 A3000 RMK AO2 T00851025
K9A5 112235Z AUTO 20004KT 10SM CLR 10/M03 A2999 RMK AO2 T00961029
K9A5 112215Z AUTO 20006KT 10SM CLR 10/M03 A3000 RMK AO2 T01001026
K9A5 112155Z AUTO 18006KT 10SM CLR 11/M03 A3000 RMK AO2 T01061031
K9A5 112135Z AUTO 17007KT 10SM CLR 11/M03 A2999 RMK AO2 T01131033
K9A5 112115Z AUTO 17005KT 10SM CLR 13/M04 A3000 RMK AO2 T01251041
K9A5 112055Z AUTO 19005KT 10SM CLR 13/M05 A3002 RMK AO2 T01301048
K9A5 112035Z AUTO 20003KT 10SM CLR 13/M05 A3002 RMK AO2 T01281051
K9A5 112015Z AUTO 19005KT 10SM CLR 13/M04 A3003 RMK AO2 T01301042
K9A5 111955Z AUTO 20006KT 10SM CLR 13/M04 A3004 RMK AO2 T01281045
K9A5 111935Z AUTO 22007KT 10SM CLR 12/M05 A3004 RMK AO2 T01221047
K9A5 111915Z AUTO 22007KT 10SM CLR 12/M05 A3005 RMK AO2 T01221050
K9A5 111855Z AUTO 18004KT 10SM CLR 12/M04 A3005 RMK AO2 T01181045
K9A5 111835Z AUTO 22009KT 10SM CLR 12/M05 A3007 RMK AO2 T01161048
K9A5 111815Z AUTO 20005KT 10SM CLR 11/M04 A3008 RMK AO2 T01131043
K9A5 111755Z AUTO 16004KT 10SM CLR 10/M04 A3009 RMK AO2 T01041043 10104 21045
K9A5 111735Z AUTO 20005KT 10SM CLR 10/M04 A3011 RMK AO2 T00951043
K9A5 111715Z AUTO 22003KT 10SM CLR 09/M04 A3012 RMK AO2 T00881039
K9A5 111655Z AUTO 20003KT 10SM CLR 08/M04 A3014 RMK AO2 T00821040
K9A5 111635Z AUTO 23004KT 10SM CLR 07/M04 A3017 RMK AO2 T00701042
K9A5 111615Z AUTO 23006KT 10SM CLR 06/M04 A3017 RMK AO2 T00611042
K9A5 111555Z AUTO 21003KT 10SM CLR 06/M03 A3019 RMK AO2 T00551034
K9A5 111535Z AUTO 20004KT 10SM CLR 04/M04 A3019 RMK AO2 T00441036
K9A5 111515Z AUTO 22004KT 10SM CLR 03/M04 A3019 RMK AO2 T00301036
K9A5 111455Z AUTO 00000KT 10SM CLR 02/M03 A3019 RMK AO2 T00161035
K9A5 111435Z AUTO 23003KT 10SM CLR 00/M02 A3019 RMK AO2 T00041024
K9A5 111415Z AUTO 00000KT 10SM CLR M01/M03 A3019 RMK AO2 T10101027
K9A5 111355Z AUTO 00000KT 10SM CLR M03/M04 A3019 RMK AO2 T10261041
K9A5 111335Z AUTO 00000KT 10SM CLR M04/M05 A3020 RMK AO2 T10361050
K9A5 111315Z AUTO 00000KT 10SM CLR M04/M05 A3020 RMK AO2 T10411055
K9A5 111255Z AUTO 00000KT 10SM CLR M04/M06 A3020 RMK AO2 T10421057
K9A5 111235Z AUTO 00000KT 10SM CLR M04/M06 A3020 RMK AO2 T10421057
K9A5 111215Z AUTO 00000KT 10SM CLR M04/M06 A3020 RMK AO2 T10421057
K9A5 111155Z AUTO 00000KT 10SM CLR M04/M06 A3020 RMK AO2 T10411057 11012 21041
K9A5 111135Z AUTO 00000KT 10SM CLR M04/M06 A3020 RMK AO2 T10401057
K9A5 111115Z AUTO 00000KT 10SM CLR M04/M06 A3019 RMK AO2 T10401058
K9A5 111055Z AUTO 00000KT 10SM CLR M04/M06 A3019 RMK AO2 T10381057
K9A5 111035Z AUTO 00000KT 10SM CLR M04/M06 A3019 RMK AO2 T10371056
K9A5 111015Z AUTO 00000KT 10SM CLR M04/M06 A3019 RMK AO2 T10371058
K9A5 110955Z AUTO 00000KT 10SM CLR M04/M06 A3019 RMK AO2 T10361057
K9A5 110935Z AUTO 00000KT 10SM CLR M03/M06 A3019 RMK AO2 T10351057
K9A5 110915Z AUTO 00000KT 10SM CLR M03/M06 A3020 RMK AO2 T10341056
K9A5 110855Z AUTO 00000KT 10SM CLR M03/M06 A3020 RMK AO2 T10321057
K9A5 110835Z AUTO 00000KT 10SM CLR M03/M06 A3020 RMK AO2 T10311057
K9A5 110815Z AUTO 00000KT 10SM CLR M03/M06 A3020 RMK AO2 T10291056
K9A5 110755Z AUTO 00000KT 10SM CLR M03/M06 A3020 RMK AO2 T10271057
K9A5 110735Z AUTO 00000KT 10SM CLR M03/M06 A3021 RMK AO2 T10271058
K9A5 110715Z AUTO 00000KT 10SM CLR M02/M06 A3021 RMK AO2 T10231057
K9A5 110655Z AUTO 00000KT 10SM CLR M02/M06 A3021 RMK AO2 T10221056
K9A5 110635Z AUTO 00000KT 10SM CLR M02/M06 A3022 RMK AO2 T10221059
K9A5 110615Z AUTO 00000KT 10SM CLR M02/M06 A3022 RMK AO2 T10181058
K9A5 110555Z AUTO 00000KT 10SM CLR M01/M06 A3023 RMK AO2 T10121058 10019 21016 400711063
K9A5 110535Z AUTO 00000KT 10SM CLR M01/M06 A3024 RMK AO2 T10151060
K9A5 110515Z AUTO 00000KT 10SM CLR M01/M06 A3024 RMK AO2 T10121063
K9A5 110455Z AUTO 00000KT 10SM CLR M01/M06 A3024 RMK AO2 T10151059
K9A5 110435Z AUTO 00000KT 10SM CLR M01/M06 A3024 RMK AO2 T10141063
K9A5 110415Z AUTO 00000KT 10SM CLR M01/M06 A3025 RMK AO2 T10071064
K9A5 110355Z AUTO 00000KT 10SM CLR 00/M06 A3025 RMK AO2 T10011062
K9A5 110335Z AUTO 19003KT 10SM CLR 01/M06 A3024 RMK AO2 T00051064
K9A5 110315Z AUTO 16005KT 10SM CLR 00/M06 A3024 RMK AO2 T00001061
K9A5 110255Z AUTO 00000KT 10SM CLR 01/M07 A3024 RMK AO2 T00091068
K9A5 110235Z AUTO 00000KT 10SM CLR 01/M06 A3023 RMK AO2 T00051065
K9A5 110155Z AUTO 19003KT 10SM CLR M01/M05 A3022 RMK AO2 T10121051
K9A5 110135Z AUTO 00000KT 10SM CLR M01/M06 A3022 RMK AO2 T10151058
K9A5 110115Z AUTO 00000KT 10SM CLR M01/M07 A3021 RMK AO2 T10081068
K9A5 110055Z AUTO 00000KT 10SM CLR 00/M06 A3020 RMK AO2 T10021065
K9A5 110035Z AUTO 00000KT 10SM CLR 00/M07 A3020 RMK AO2 T00001071
K9A5 110015Z AUTO 00000KT 10SM CLR 01/M07 A3020 RMK AO2 T00071066
K9A5 102355Z AUTO 00000KT 10SM CLR 02/M08 A3020 RMK AO2 T00201081 10071 20010
K9A5 102335Z AUTO 20004KT 10SM CLR 02/M07 A3020 RMK AO2 T00161074
K9A5 102315Z AUTO 00000KT 10SM CLR 02/M08 A3021 RMK AO2 T00221084
K9A5 102255Z AUTO 00000KT 10SM CLR 03/M08 A3021 RMK AO2 T00261078
K9A5 102235Z AUTO 23003KT 10SM CLR 04/M10 A3022 RMK AO2 T00441101
K9A5 102215Z AUTO 23004KT 10SM CLR 05/M11 A3021 RMK AO2 T00531115